Data for 05/28/2009

Time Sea-Level Adjusted Pressure Absolute Pressure Temperature Relative Humidity Dew Point   
(mb) (inHg) (mb) (inHg) (C) (F) (%) (C) (F)
00:05 1020 30.12 849 25.07 13.3 55.9 39 -0.2 31.6
00:10 1020 30.12 849 25.07 13.2 55.7 37 -1.2 29.9
00:15 1020 30.12 849 25.07 13.4 56.2 38 -0.5 31
00:20 1020 30.12 849 25.07 13.4 56.2 37 -0.9 30.4
00:25 1020 30.12 849 25.07 13.3 56 38 -0.8 30.6
00:30 1020 30.12 849 25.07 13.2 55.7 38 -0.8 30.6
00:35 1020 30.12 849 25.07 13 55.4 39 -0.6 31
00:40 1020 30.12 849 25.07 12.8 55.1 39 -0.7 30.8
00:45 1020 30.12 849 25.07 12.7 54.9 40 -0.5 31
00:50 1020 30.12 849 25.07 12.5 54.5 41 -0.5 31.2
00:55 1020 30.12 849 25.07 12.3 54.2 41 -0.4 31.3
01:00 1020 30.12 849 25.07 12.1 53.8 42 -0.2 31.6
01:05 1020 30.12 849 25.07 11.9 53.3 43 -0.3 31.5
01:10 1020 30.12 849 25.07 11.8 53.2 43 -0.4 31.2
01:15 1020 30.12 849 25.07 11.8 53.2 43 -0.4 31.3
01:20 1020 30.12 849 25.07 11.6 52.9 43 -0.5 31
01:25 1020 30.12 849 25.07 11.5 52.7 44 -0.3 31.4
01:30 1020 30.12 849 25.07 11.5 52.7 45 -0.1 31.8
01:35 1020 30.12 849 25.07 11.3 52.4 45 -0.1 31.8
01:40 1020 30.12 849 25.07 11.3 52.4 44 -0.5 31.2
01:45 1020 30.12 849 25.07 11.4 52.6 44 -0.3 31.5
01:50 1020 30.12 849 25.07 11.3 52.4 45 -0.3 31.5
01:55 1020 30.12 849 25.07 11.2 52.1 45 -0.3 31.4
02:00 1020 30.12 849 25.07 11.1 51.9 46 -0.2 31.7
02:05 1020 30.12 849 25.07 10.7 51.3 48 0.3 32.6
02:10 1020 30.12 849 25.07 10.5 50.8 48 -0.1 31.9
02:15 1020 30.12 849 25.07 10.4 50.8 48 -0.1 31.9
02:20 1020 30.12 849 25.07 10.5 50.9 47 -0.3 31.4
02:25 1020 30.12 849 25.07 10.6 51 47 -0.1 31.7
02:30 1020 30.12 849 25.07 10.5 50.8 47 -0.2 31.6
02:35 1020 30.12 850 25.1 10.4 50.7 47 -0.5 31.2
02:40 1020 30.12 850 25.1 10.7 51.2 45 -0.8 30.6
02:45 1020 30.12 850 25.1 11 51.7 44 -0.8 30.6
02:50 1020 30.12 850 25.1 10.9 51.6 45 -0.6 31
02:55 1020 30.12 850 25.1 10.8 51.4 46 -0.4 31.3
03:00 1020 30.12 850 25.1 10.7 51.2 46 -0.6 31
03:05 1021 30.15 850 25.1 10.6 51.1 46 -0.5 31
03:10 1021 30.15 850 25.1 10.5 51 46 -0.5 31.1
03:15 1021 30.15 850 25.1 10.5 51 47 -0.3 31.4
03:20 1021 30.15 850 25.1 10.5 50.9 48 -0.1 31.8
03:25 1021 30.15 850 25.1 10.1 50.2 50 0.1 32.2
03:30 1021 30.15 850 25.1 9.7 49.4 50 -0.1 31.7
03:35 1021 30.15 850 25.1 9.6 49.3 50 -0.3 31.5
03:40 1021 30.15 850 25.1 9.6 49.4 51 -0 31.9
03:45 1021 30.15 850 25.1 9.4 48.9 52 -0 32
03:50 1021 30.15 850 25.1 9.3 48.7 52 0.1 32.2
03:55 1021 30.15 850 25.1 9.4 48.9 51 -0.2 31.7
04:00 1021 30.15 850 25.1 9.6 49.2 51 -0 31.9
04:05 1021 30.15 850 25.1 9.5 49.2 50 -0.2 31.6
04:10 1021 30.15 850 25.1 9.7 49.5 49 -0.3 31.4
04:15 1021 30.15 850 25.1 9.9 49.7 49 -0.4 31.3
04:20 1021 30.15 850 25.1 10 50 49 -0.3 31.5
04:25 1021 30.15 850 25.1 10 49.9 49 -0.3 31.5
04:30 1021 30.15 850 25.1 9.9 49.8 49 -0.4 31.3
04:35 1021 30.15 850 25.1 10 50 48 -0.4 31.2
04:40 1021 30.15 850 25.1 10.2 50.4 47 -0.5 31.1
04:45 1021 30.15 850 25.1 10.2 50.4 47 -0.5 31.2
04:50 1021 30.15 850 25.1 10.1 50.3 48 -0.3 31.4
04:55 1021 30.15 850 25.1 10.1 50.3 48 -0.5 31.2
05:00 1021 30.15 850 25.1 10.2 50.3 47 -0.7 30.7
05:05 1021 30.15 850 25.1 10.3 50.6 46 -0.6 30.9
05:10 1021 30.15 850 25.1 10.4 50.8 46 -0.8 30.6
05:15 1021 30.15 850 25.1 10.5 51 46 -0.6 30.9
05:20 1021 30.15 850 25.1 10.5 50.9 45 -0.7 30.7
05:25 1021 30.15 850 25.1 10.7 51.2 45 -0.8 30.6
05:30 1021 30.15 850 25.1 10.6 51.1 45 -0.9 30.4
05:35 1021 30.15 850 25.1 10.5 50.9 46 -0.5 31.1
05:40 1021 30.15 850 25.1 10.3 50.5 47 -0.5 31.1
05:45 1021 30.15 850 25.1 10 50 50 -0 32
05:50 1021 30.15 851 25.13 9.3 48.8 52 0 32
05:55 1021 30.15 851 25.13 9.4 48.9 50 -0.5 31
06:00 1021 30.15 851 25.13 9.8 49.6 49 -0.3 31.5
06:05 1021 30.15 851 25.13 9.7 49.5 50 -0.1 31.8
06:10 1021 30.15 851 25.13 9.9 49.7 49 -0.2 31.6
06:15 1022 30.18 851 25.13 10.1 50.1 47 -0.6 31
06:20 1022 30.18 851 25.13 10.3 50.5 48 -0.3 31.4
06:25 1022 30.18 851 25.13 10.1 50.2 48 -0.3 31.5
06:30 1022 30.18 851 25.13 10.1 50.1 48 -0.3 31.5
06:35 1022 30.18 851 25.13 10.2 50.3 48 -0.4 31.3
06:40 1022 30.18 851 25.13 10.6 51 46 -0.4 31.2
06:45 1022 30.18 851 25.13 10.9 51.6 46 -0.3 31.4
06:50 1022 30.18 851 25.13 10.9 51.7 46 -0.1 31.9
06:55 1022 30.18 851 25.13 11.1 51.9 46 0 32
07:00 1022 30.18 851 25.13 11 51.8 50 0.9 33.6
07:05 1022 30.18 851 25.13 10.9 51.6 48 0.5 32.9
07:10 1022 30.18 851 25.13 10.9 51.6 48 0.5 32.9
07:15 1022 30.18 851 25.13 11.2 52.2 46 0.1 32.2
07:20 1022 30.18 851 25.13 11.6 52.8 45 0.1 32.3
07:25 1022 30.18 851 25.13 11.9 53.4 45 0.5 32.8
07:30 1022 30.18 851 25.13 11.9 53.5 46 0.6 33.1
07:35 1022 30.18 851 25.13 12.4 54.4 44 0.5 32.9
07:40 1022 30.18 851 25.13 13.2 55.8 42 0.7 33.2
07:45 1022 30.18 851 25.13 13.8 56.8 41 0.8 33.4
07:50 1022 30.18 851 25.13 14.3 57.7 39 0.6 33.1
07:55 1022 30.18 851 25.13 14.6 58.3 39 0.9 33.6
08:00 1022 30.18 851 25.13 14.9 58.8 39 1.1 33.9
08:05 1022 30.18 851 25.13 15.1 59.2 37 0.7 33.3
08:10 1022 30.18 851 25.13 15.4 59.7 36 0.6 33.1
08:15 1022 30.18 851 25.13 15.8 60.4 35 0.3 32.5
08:20 1022 30.18 851 25.13 16.4 61.4 34 0.5 32.9
08:25 1022 30.18 851 25.13 16.5 61.7 34 0.6 33.1
08:30 1022 30.18 851 25.13 16.9 62.4 33 0.4 32.8
08:35 1022 30.18 851 25.13 16.6 61.8 33 0.5 33
08:40 1022 30.18 851 25.13 16.6 62 34 0.7 33.3
08:45 1022 30.18 851 25.13 17.4 63.2 32 0.7 33.2
08:50 1022 30.18 851 25.13 18 64.4 32 1.3 34.3
08:55 1022 30.18 851 25.13 17.5 63.6 34 1.5 34.8
09:00 1022 30.18 851 25.13 17.3 63.1 33 1 33.7
09:05 1022 30.18 851 25.13 17.7 63.8 32 1 33.7
09:10 1022 30.18 851 25.13 17.9 64.2 33 1.4 34.6
09:15 1022 30.18 851 25.13 18.5 65.2 32 1.5 34.7
09:20 1022 30.18 851 25.13 19.4 66.8 28 0.7 33.3
09:25 1022 30.18 851 25.13 19 66.2 29 0.9 33.6
09:30 1022 30.18 851 25.13 19.1 66.3 28 0.1 32.2
09:35 1022 30.18 851 25.13 18.6 65.5 30 1 33.9
09:40 1022 30.18 851 25.13 18.9 66 28 0.2 32.3
09:45 1022 30.18 851 25.13 19.5 67.1 29 1 33.7
09:50 1022 30.18 851 25.13 19.9 67.9 27 0.5 33
09:55 1022 30.18 851 25.13 20.6 69.1 24 -0.4 31.2
10:00 1022 30.18 851 25.13 21.2 70.2 24 0.2 32.3
10:05 1022 30.18 851 25.13 21.1 70 22 -1.1 30.1
10:10 1022 30.18 851 25.13 20.9 69.7 23 -0.9 30.4
10:15 1022 30.18 851 25.13 20.7 69.3 24 -0.5 31.1
10:20 1022 30.18 851 25.13 20.1 68.1 23 -1.3 29.7
10:25 1022 30.18 851 25.13 21 69.7 22 -1.5 29.4
10:30 1022 30.18 851 25.13 20.8 69.4 23 -1.2 29.9
10:35 1022 30.18 851 25.13 20.1 68.2 25 -0.4 31.2
10:40 1022 30.18 851 25.13 20.7 69.3 23 -0.7 30.7
10:45 1022 30.18 851 25.13 21.7 71 21 -1.5 29.4
10:50 1022 30.18 851 25.13 21.6 70.9 21 -1.2 29.9
10:55 1022 30.18 851 25.13 21.4 70.5 24 -0.1 31.8
11:00 1022 30.18 851 25.13 20.8 69.5 23 -0.7 30.7
11:05 1022 30.18 851 25.13 21.1 70 21 -1.9 28.6
11:10 1022 30.18 851 25.13 22.3 72.2 21 -1.1 29.9
11:15 1022 30.18 851 25.13 21.9 71.4 22 -0.6 31
11:20 1022 30.18 851 25.13 21.6 70.8 21 -1.2 29.8
11:25 1021 30.15 851 25.13 21.2 70.1 22 -1.2 29.8
11:30 1021 30.15 851 25.13 22.2 72 19 -2.6 27.4
11:35 1021 30.15 851 25.13 22.6 72.6 20 -1.2 29.9
11:40 1021 30.15 851 25.13 21.6 70.9 22 -0.6 31
11:45 1021 30.15 851 25.13 20.9 69.7 21 -1.7 28.9
11:50 1021 30.15 850 25.1 22.3 72.2 19 -2.5 27.5
11:55 1021 30.15 850 25.1 23.3 73.9 17 -3 26.7
12:00 1021 30.15 850 25.1 23.3 73.9 15 -4.2 24.4
12:05 1021 30.15 850 25.1 23.3 74 15 -4.6 23.8
12:10 1021 30.15 850 25.1 23.5 74.2 16 -3.7 25.3
12:15 1021 30.15 850 25.1 23.4 74.1 16 -3.3 26.1
12:20 1021 30.15 850 25.1 23.8 74.8 15 -4.5 23.9
12:25 1021 30.15 850 25.1 22.7 72.9 14 -6 21.2
12:30 1021 30.15 850 25.1 22.7 72.9 15 -5.1 22.8
12:35 1021 30.15 850 25.1 23.3 73.9 15 -5 23
12:40 1021 30.15 850 25.1 23.5 74.4 14 -5 23.1
12:45 1021 30.15 850 25.1 24 75.2 14 -4.7 23.5
12:50 1021 30.15 850 25.1 24 75.2 14 -4.8 23.3
12:55 1021 30.15 850 25.1 24.4 75.9 14 -4.8 23.3
13:00 1021 30.15 850 25.1 24.5 76 15 -3.5 25.8
13:05 1021 30.15 850 25.1 24.1 75.3 15 -3.7 25.3
13:10 1021 30.15 850 25.1 24.2 75.6 14 -4.6 23.8
13:15 1021 30.15 850 25.1 24.7 76.5 15 -3.8 25.2
13:20 1021 30.15 850 25.1 23.6 74.4 15 -4.6 23.7
13:25 1021 30.15 850 25.1 24.2 75.6 15 -4.1 24.7
13:30 1021 30.15 850 25.1 24.8 76.6 15 -3.7 25.4
13:35 1020 30.12 850 25.1 24.1 75.4 16 -3.2 26.3
13:40 1020 30.12 850 25.1 24.1 75.3 16 -2.9 26.9
13:45 1020 30.12 850 25.1 24.8 76.6 15 -3.7 25.3
13:50 1020 30.12 849 25.07 25.2 77.3 16 -2.5 27.6
13:55 1020 30.12 849 25.07 24.1 75.4 17 -2.3 27.9
14:00 1020 30.12 849 25.07 24.5 76.1 15 -3.4 25.9
14:05 1020 30.12 849 25.07 23.5 74.2 17 -2.5 27.5
14:10 1020 30.12 849 25.07 24 75.2 16 -3.5 25.7
14:15 1020 30.12 849 25.07 24.5 76.2 15 -3.5 25.7
14:20 1020 30.12 849 25.07 25.3 77.5 15 -2.6 27.3
14:25 1020 30.12 849 25.07 24.6 76.3 15 -3.2 26.2
14:30 1020 30.12 849 25.07 24.6 76.2 15 -3.5 25.7
14:35 1020 30.12 849 25.07 23.9 75 15 -3.8 25.2
14:40 1020 30.12 849 25.07 24.6 76.2 16 -3 26.6
14:45 1020 30.12 849 25.07 25 77 15 -3.3 26
14:50 1020 30.12 849 25.07 25.3 77.6 15 -3.2 26.3
14:55 1020 30.12 849 25.07 25.7 78.2 15 -2.4 27.6
15:00 1020 30.12 849 25.07 25.3 77.5 15 -3.2 26.2
15:05 1020 30.12 849 25.07 24.4 75.8 16 -2.8 27
15:10 1020 30.12 849 25.07 25 76.9 15 -3.2 26.2
15:15 1020 30.12 849 25.07 23.9 75.1 16 -2.8 26.9
15:20 1020 30.12 849 25.07 23.8 74.8 15 -3.9 25.1
15:25 1020 30.12 849 25.07 23.8 74.8 17 -2.9 26.8
15:30 1020 30.12 849 25.07 24.1 75.3 16 -3.2 26.3
15:35 1020 30.12 849 25.07 24 75.3 17 -2.7 27.2
15:40 1020 30.12 849 25.07 24.6 76.3 15 -3.5 25.6
15:45 1020 30.12 849 25.07 25.5 77.9 15 -3 26.6
15:50 1019 30.09 849 25.07 25.2 77.3 15 -3.1 26.4
15:55 1019 30.09 849 25.07 25.7 78.3 14 -3.1 26.4
16:00 1019 30.09 849 25.07 25.7 78.2 14 -3.1 26.4
16:05 1019 30.09 848 25.04 25.3 77.6 15 -2.9 26.8
16:10 1019 30.09 848 25.04 25.5 77.9 15 -3 26.7
16:15 1019 30.09 848 25.04 26.1 79 15 -2.7 27.2
16:20 1019 30.09 848 25.04 25.7 78.3 14 -3.5 25.8
16:25 1019 30.09 848 25.04 26 78.7 14 -2.9 26.9
16:30 1019 30.09 848 25.04 26 78.7 14 -3.4 25.8
16:35 1019 30.09 848 25.04 26.6 79.8 15 -2.1 28.2
16:40 1019 30.09 848 25.04 26.7 80.1 14 -2.3 27.8
16:45 1019 30.09 848 25.04 26.7 80 14 -2.6 27.3
16:50 1019 30.09 848 25.04 26.3 79.3 14 -2.7 27.2
16:55 1019 30.09 848 25.04 26.5 79.6 14 -2.7 27.1
17:00 1019 30.09 848 25.04 26.1 79 14 -2.7 27.1
17:05 1019 30.09 848 25.04 26.4 79.6 15 -2.4 27.6
17:10 1019 30.09 848 25.04 26.6 79.8 14 -2.6 27.3
17:15 1019 30.09 848 25.04 27 80.7 15 -1.8 28.7
17:20 1019 30.09 848 25.04 25.8 78.4 16 -1.5 29.3
17:25 1019 30.09 848 25.04 25.7 78.3 16 -1.5 29.4
17:30 1019 30.09 848 25.04 25 76.9 17 -1.8 28.7
17:35 1019 30.09 848 25.04 25.2 77.4 16 -2.3 27.8
17:40 1019 30.09 848 25.04 25.1 77.3 15 -2.8 27
17:45 1019 30.09 848 25.04 25.5 77.8 14 -3.3 26.1
17:50 1019 30.09 848 25.04 26.1 79.1 15 -2.4 27.8
17:55 1019 30.09 848 25.04 26.6 79.8 14 -3.3 26
18:00 1018 30.06 848 25.04 26.6 80 14 -2.4 27.6
18:05 1018 30.06 848 25.04 26.6 79.8 15 -2.1 28.3
18:10 1018 30.06 848 25.04 26.6 79.8 14 -2.7 27.2
18:15 1018 30.06 848 25.04 26.5 79.6 14 -2.7 27.2
18:20 1018 30.06 848 25.04 25.4 77.6 15 -3.1 26.4
18:25 1018 30.06 848 25.04 26 78.7 14 -3 26.7
18:30 1018 30.06 848 25.04 26 78.8 15 -2.6 27.3
18:35 1018 30.06 848 25.04 26.3 79.4 14 -2.9 26.8
18:40 1018 30.06 848 25.04 26 78.7 15 -2.5 27.5
18:45 1018 30.06 848 25.04 25.5 77.8 15 -2.9 26.7
18:50 1018 30.06 847 25.01 25.9 78.6 15 -2.7 27.1
18:55 1018 30.06 847 25.01 25.7 78.2 15 -2.2 28
19:00 1018 30.06 847 25.01 25.3 77.5 15 -2.6 27.3
19:05 1018 30.06 847 25.01 25 77 17 -1.2 29.9
19:10 1018 30.06 847 25.01 25.3 77.6 14 -3.6 25.5
19:15 1018 30.06 848 25.04 25.8 78.5 15 -2.4 27.6
19:20 1018 30.06 848 25.04 25.1 77.2 16 -2.3 27.8
19:25 1018 30.06 848 25.04 24.9 76.7 15 -2.9 26.7
19:30 1018 30.06 848 25.04 24.6 76.3 17 -1.6 29.1
19:35 1019 30.09 848 25.04 24.7 76.5 18 -1.1 30
19:40 1019 30.09 848 25.04 24.3 75.8 19 -0.8 30.6
19:45 1019 30.09 848 25.04 24.1 75.4 18 -1.6 29.2
19:50 1019 30.09 848 25.04 24.1 75.4 20 -0.3 31.4
19:55 1019 30.09 848 25.04 23.9 75 20 -0.4 31.2
20:00 1019 30.09 848 25.04 23.8 74.8 20 -0.7 30.8
20:05 1019 30.09 848 25.04 23.5 74.4 21 -0.1 31.8
20:10 1019 30.09 848 25.04 23.1 73.6 22 0.2 32.4
20:15 1019 30.09 848 25.04 22.8 73.1 23 0.6 33.1
20:20 1019 30.09 848 25.04 22.6 72.8 23 0.7 33.2
20:25 1019 30.09 848 25.04 22.5 72.4 23 0.6 33.1
20:30 1019 30.09 848 25.04 22.5 72.4 24 1 33.8
20:35 1019 30.09 848 25.04 22.4 72.2 24 1 33.8
20:40 1019 30.09 848 25.04 22.2 71.9 25 1.3 34.3
20:45 1019 30.09 848 25.04 21.9 71.5 25 1.4 34.5
20:50 1019 30.09 849 25.07 21.7 71.1 25 1.1 34
20:55 1019 30.09 849 25.07 21.6 70.8 26 1.3 34.3
21:00 1019 30.09 849 25.07 21.4 70.4 27 1.8 35.2
21:05 1020 30.12 849 25.07 21.2 70.1 27 1.4 34.5
21:10 1020 30.12 849 25.07 20.9 69.6 27 1.6 34.9
21:15 1020 30.12 849 25.07 20.5 68.8 31 2.7 36.9
21:20 1020 30.12 849 25.07 19.9 67.8 33 3.5 38.4
21:25 1020 30.12 849 25.07 19.7 67.4 33 2.9 37.3
21:30 1020 30.12 849 25.07 19.3 66.7 36 3.8 38.9
21:35 1020 30.12 849 25.07 19 66.1 40 5.3 41.6
21:40 1020 30.12 849 25.07 18.3 65 41 5.1 41.2
21:45 1020 30.12 849 25.07 18.1 64.6 40 4.4 39.9
21:50 1020 30.12 850 25.1 17.7 63.8 39 3.7 38.7
21:55 1020 30.12 850 25.1 17.5 63.4 40 3.9 39
22:00 1020 30.12 850 25.1 17.5 63.4 40 3.7 38.6
22:05 1020 30.12 850 25.1 17.1 62.8 41 4 39.2
22:10 1020 30.12 850 25.1 16.8 62.3 42 4 39.3
22:15 1020 30.12 850 25.1 16.6 61.9 42 3.8 38.8
22:20 1020 30.12 850 25.1 16.3 61.4 43 3.9 38.9
22:25 1020 30.12 850 25.1 16.1 61.1 44 3.8 38.9
22:30 1021 30.15 850 25.1 16.1 61 44 3.9 38.9
22:35 1021 30.15 850 25.1 15.9 60.6 44 3.6 38.5
22:40 1021 30.15 850 25.1 15.4 59.7 45 3.7 38.6
22:45 1021 30.15 850 25.1 15.2 59.4 46 3.7 38.7
22:50 1021 30.15 850 25.1 15.6 60 45 3.9 39.1
22:55 1021 30.15 850 25.1 15.5 59.9 45 3.7 38.7
23:00 1021 30.15 850 25.1 15.4 59.8 44 3.5 38.2
23:05 1021 30.15 850 25.1 15.3 59.5 46 3.8 38.8
23:10 1020 30.12 850 25.1 15.2 59.3 43 2.8 37
23:15 1021 30.15 850 25.1 15 59 46 3.6 38.4
23:20 1021 30.15 850 25.1 14.4 57.8 47 3.4 38.2
23:25 1021 30.15 850 25.1 14.1 57.3 49 3.6 38.5
23:30 1021 30.15 850 25.1 14 57.1 47 2.9 37.1
23:35 1021 30.15 850 25.1 14.2 57.5 45 2.5 36.5
23:40 1021 30.15 850 25.1 14.3 57.7 44 2.3 36.2
23:45 1021 30.15 850 25.1 14.3 57.7 44 2.4 36.4
23:50 1021 30.15 850 25.1 14.2 57.6 44 2.3 36.2
23:55 1021 30.15 850 25.1 14.3 57.7 44 2.4 36.3
24:00 1021 30.15 850 25.1 14.2 57.6 44 2.3 36.1